This is the latest recevied weather packets stored in our database for station/object K5IDL. If no packets are shown the sender has not sent any weather packets the latest 10 day(s).
| Time | Temp. | Humidity | Pressure | Rain* | Wind** | Luminosity | Snow |
|---|---|---|---|---|---|---|---|
| 1777924975 | 27.78° C | 52% | 1010.5 hPa | 0 mm | - | 263 W/m² | - |
| 1777924672 | 28.33° C | 51% | 1010.3 hPa | 0 mm | - | 167 W/m² | - |
| 1777924368 | 27.78° C | 51% | 1010.3 hPa | 0 mm | - | 91 W/m² | - |
| 1777924065 | 27.78° C | 51% | 1010.5 hPa | 0 mm | - | 179 W/m² | - |
| 1777923761 | 27.78° C | 51% | 1010.6 hPa | 0 mm | - | 159 W/m² | - |
| 1777923457 | 27.78° C | 52% | 1010.5 hPa | 0 mm | - | 151 W/m² | - |
| 1777923155 | 27.22° C | 52% | 1010.4 hPa | 0 mm | - | 229 W/m² | - |
| 1777922853 | 27.78° C | 51% | 1010.6 hPa | 0 mm | - | 311 W/m² | - |
| 1777922551 | 27.22° C | 51% | 1010.8 hPa | 0 mm | - | 268 W/m² | - |
| 1777922249 | 27.78° C | 50% | 1010.8 hPa | 0 mm | - | 437 W/m² | - |
| 1777921946 | 27.78° C | 50% | 1011.1 hPa | 0 mm | - | 653 W/m² | - |
| 1777921641 | 27.78° C | 49% | 1011.2 hPa | 0 mm | - | 538 W/m² | - |
| 1777921338 | 27.78° C | 50% | 1011.1 hPa | 0 mm | - | 722 W/m² | - |
| 1777921034 | 27.78° C | 49% | 1011.1 hPa | 0 mm | - | 735 W/m² | - |
| 1777920731 | 27.22° C | 50% | 1011.3 hPa | 0 mm | - | 673 W/m² | - |
| 1777920427 | 27.78° C | 48% | 1010.9 hPa | 0 mm | - | 617 W/m² | - |
| 1777920123 | 27.22° C | 49% | 1011.2 hPa | 0 mm | - | 738 W/m² | - |
| 1777919819 | 27.22° C | 49% | 1011.3 hPa | 0 mm | - | 637 W/m² | - |
| 1777919516 | 27.22° C | 49% | 1011.1 hPa | 0 mm | - | 495 W/m² | - |
| 1777919214 | 27.22° C | 48% | 1011.4 hPa | 0 mm | - | 623 W/m² | - |
| 1777918912 | 27.22° C | 48% | 1011.5 hPa | 0 mm | - | 465 W/m² | - |
| 1777918609 | 26.67° C | 47% | 1011.6 hPa | 0 mm | - | 568 W/m² | - |
| 1777918307 | 26.11° C | 48% | 1011.6 hPa | 0 mm | - | 336 W/m² | - |
| 1777918005 | 27.22° C | 45% | 1011.6 hPa | 0 mm | - | 385 W/m² | - |
| 1777917704 | 27.78° C | 47% | 1011.7 hPa | 0 mm | - | 580 W/m² | - |
* Rain latest hour (hover to see other rain measurements)
** Current wind speed in m/s (hover to see current wind gust speed)